sensor_id;sensor_type;location;lat;lon;timestamp;P1;durP1;ratioP1;P2;durP2;ratioP2
12861;SDS011;6499;66.348;14.134;2023-04-01T00:01:14;5.37;;;1.50;;
12861;SDS011;6499;66.348;14.134;2023-04-01T00:03:41;3.57;;;1.30;;
12861;SDS011;6499;66.348;14.134;2023-04-01T00:06:08;4.13;;;1.60;;
12861;SDS011;6499;66.348;14.134;2023-04-01T00:08:35;5.57;;;1.77;;
12861;SDS011;6499;66.348;14.134;2023-04-01T00:11:01;3.37;;;1.30;;
12861;SDS011;6499;66.348;14.134;2023-04-01T00:13:28;4.17;;;1.73;;
12861;SDS011;6499;66.348;14.134;2023-04-01T00:15:56;5.13;;;1.83;;
12861;SDS011;6499;66.348;14.134;2023-04-01T00:18:22;4.17;;;1.83;;
12861;SDS011;6499;66.348;14.134;2023-04-01T00:20:49;4.87;;;1.57;;
12861;SDS011;6499;66.348;14.134;2023-04-01T00:23:16;4.43;;;1.30;;
12861;SDS011;6499;66.348;14.134;2023-04-01T00:25:43;4.27;;;0.90;;
12861;SDS011;6499;66.348;14.134;2023-04-01T00:28:10;4.73;;;1.30;;
12861;SDS011;6499;66.348;14.134;2023-04-01T00:30:36;4.20;;;1.67;;
12861;SDS011;6499;66.348;14.134;2023-04-01T00:33:04;5.73;;;1.50;;
12861;SDS011;6499;66.348;14.134;2023-04-01T00:35:31;5.13;;;1.30;;
12861;SDS011;6499;66.348;14.134;2023-04-01T00:37:58;3.13;;;1.57;;
12861;SDS011;6499;66.348;14.134;2023-04-01T00:40:26;4.67;;;1.70;;
12861;SDS011;6499;66.348;14.134;2023-04-01T00:42:53;5.10;;;1.30;;
12861;SDS011;6499;66.348;14.134;2023-04-01T00:45:23;5.20;;;1.40;;
12861;SDS011;6499;66.348;14.134;2023-04-01T00:47:51;3.17;;;1.23;;
12861;SDS011;6499;66.348;14.134;2023-04-01T00:50:19;2.10;;;1.17;;
12861;SDS011;6499;66.348;14.134;2023-04-01T00:52:47;5.10;;;1.17;;
12861;SDS011;6499;66.348;14.134;2023-04-01T00:55:13;1.70;;;1.07;;
12861;SDS011;6499;66.348;14.134;2023-04-01T00:57:40;4.80;;;1.27;;
12861;SDS011;6499;66.348;14.134;2023-04-01T01:00:10;4.67;;;1.40;;
12861;SDS011;6499;66.348;14.134;2023-04-01T01:02:38;4.13;;;1.23;;
12861;SDS011;6499;66.348;14.134;2023-04-01T01:08:12;3.90;;;1.70;;
12861;SDS011;6499;66.348;14.134;2023-04-01T01:10:40;2.97;;;1.10;;
12861;SDS011;6499;66.348;14.134;2023-04-01T01:13:10;3.33;;;1.13;;
12861;SDS011;6499;66.348;14.134;2023-04-01T01:15:37;4.70;;;1.20;;
12861;SDS011;6499;66.348;14.134;2023-04-01T01:18:09;4.20;;;0.93;;
12861;SDS011;6499;66.348;14.134;2023-04-01T01:20:42;4.37;;;1.27;;
12861;SDS011;6499;66.348;14.134;2023-04-01T01:23:26;3.17;;;1.00;;
12861;SDS011;6499;66.348;14.134;2023-04-01T01:25:58;3.13;;;1.10;;
12861;SDS011;6499;66.348;14.134;2023-04-01T01:28:32;3.17;;;1.00;;
12861;SDS011;6499;66.348;14.134;2023-04-01T01:31:04;4.00;;;1.13;;
12861;SDS011;6499;66.348;14.134;2023-04-01T01:33:48;1.80;;;0.77;;
12861;SDS011;6499;66.348;14.134;2023-04-01T01:36:19;5.60;;;1.20;;
12861;SDS011;6499;66.348;14.134;2023-04-01T01:41:52;4.33;;;1.30;;
12861;SDS011;6499;66.348;14.134;2023-04-01T01:44:20;3.53;;;0.93;;
12861;SDS011;6499;66.348;14.134;2023-04-01T01:46:47;4.07;;;1.20;;
12861;SDS011;6499;66.348;14.134;2023-04-01T01:49:14;3.27;;;1.10;;
12861;SDS011;6499;66.348;14.134;2023-04-01T01:51:44;5.17;;;1.40;;
12861;SDS011;6499;66.348;14.134;2023-04-01T01:54:11;2.07;;;0.93;;
12861;SDS011;6499;66.348;14.134;2023-04-01T01:56:46;5.83;;;1.17;;
12861;SDS011;6499;66.348;14.134;2023-04-01T01:59:14;2.47;;;0.97;;
12861;SDS011;6499;66.348;14.134;2023-04-01T02:04:41;3.90;;;1.07;;
12861;SDS011;6499;66.348;14.134;2023-04-01T02:07:10;1.77;;;0.90;;
12861;SDS011;6499;66.348;14.134;2023-04-01T02:09:38;3.50;;;1.60;;
12861;SDS011;6499;66.348;14.134;2023-04-01T02:12:06;2.47;;;1.20;;
12861;SDS011;6499;66.348;14.134;2023-04-01T02:14:35;5.53;;;1.50;;
12861;SDS011;6499;66.348;14.134;2023-04-01T02:17:04;7.33;;;1.17;;
12861;SDS011;6499;66.348;14.134;2023-04-01T02:19:33;3.80;;;0.97;;
12861;SDS011;6499;66.348;14.134;2023-04-01T02:22:01;2.87;;;0.97;;
12861;SDS011;6499;66.348;14.134;2023-04-01T02:24:30;1.90;;;1.47;;
12861;SDS011;6499;66.348;14.134;2023-04-01T02:26:57;6.37;;;1.30;;
12861;SDS011;6499;66.348;14.134;2023-04-01T02:29:25;3.47;;;1.07;;
12861;SDS011;6499;66.348;14.134;2023-04-01T02:31:52;3.23;;;1.10;;
12861;SDS011;6499;66.348;14.134;2023-04-01T02:34:19;4.63;;;1.20;;
12861;SDS011;6499;66.348;14.134;2023-04-01T02:36:46;4.70;;;1.37;;
12861;SDS011;6499;66.348;14.134;2023-04-01T02:39:13;3.67;;;1.23;;
12861;SDS011;6499;66.348;14.134;2023-04-01T02:41:41;5.27;;;1.20;;
12861;SDS011;6499;66.348;14.134;2023-04-01T02:44:09;4.63;;;1.37;;
12861;SDS011;6499;66.348;14.134;2023-04-01T02:46:36;2.60;;;1.13;;
12861;SDS011;6499;66.348;14.134;2023-04-01T02:49:02;2.50;;;1.10;;
12861;SDS011;6499;66.348;14.134;2023-04-01T02:51:29;2.77;;;0.97;;
12861;SDS011;6499;66.348;14.134;2023-04-01T02:53:55;3.40;;;1.03;;
12861;SDS011;6499;66.348;14.134;2023-04-01T02:56:22;4.93;;;1.10;;
12861;SDS011;6499;66.348;14.134;2023-04-01T02:58:49;6.23;;;1.40;;
12861;SDS011;6499;66.348;14.134;2023-04-01T03:01:16;4.10;;;1.67;;
12861;SDS011;6499;66.348;14.134;2023-04-01T03:03:43;3.27;;;1.47;;
12861;SDS011;6499;66.348;14.134;2023-04-01T03:06:10;2.67;;;1.20;;
12861;SDS011;6499;66.348;14.134;2023-04-01T03:08:36;2.90;;;1.43;;
12861;SDS011;6499;66.348;14.134;2023-04-01T03:11:03;4.07;;;1.13;;
12861;SDS011;6499;66.348;14.134;2023-04-01T03:13:30;3.40;;;1.00;;
12861;SDS011;6499;66.348;14.134;2023-04-01T03:15:58;3.80;;;1.43;;
12861;SDS011;6499;66.348;14.134;2023-04-01T03:18:24;2.97;;;1.13;;
12861;SDS011;6499;66.348;14.134;2023-04-01T03:20:51;2.73;;;1.10;;
12861;SDS011;6499;66.348;14.134;2023-04-01T03:23:17;2.83;;;1.20;;
12861;SDS011;6499;66.348;14.134;2023-04-01T03:25:44;3.80;;;1.60;;
12861;SDS011;6499;66.348;14.134;2023-04-01T03:28:11;3.07;;;1.17;;
12861;SDS011;6499;66.348;14.134;2023-04-01T03:30:38;4.00;;;1.20;;
12861;SDS011;6499;66.348;14.134;2023-04-01T03:33:06;2.97;;;0.97;;
12861;SDS011;6499;66.348;14.134;2023-04-01T03:41:38;3.40;;;0.93;;
12861;SDS011;6499;66.348;14.134;2023-04-01T03:44:04;3.60;;;0.90;;
12861;SDS011;6499;66.348;14.134;2023-04-01T03:46:30;3.43;;;1.37;;
12861;SDS011;6499;66.348;14.134;2023-04-01T03:48:58;5.00;;;1.40;;
12861;SDS011;6499;66.348;14.134;2023-04-01T03:51:25;4.90;;;1.20;;
12861;SDS011;6499;66.348;14.134;2023-04-01T03:53:51;2.40;;;0.90;;
12861;SDS011;6499;66.348;14.134;2023-04-01T03:56:18;6.20;;;1.47;;
12861;SDS011;6499;66.348;14.134;2023-04-01T03:58:44;4.47;;;1.00;;
12861;SDS011;6499;66.348;14.134;2023-04-01T04:01:14;3.83;;;1.00;;
12861;SDS011;6499;66.348;14.134;2023-04-01T04:03:41;4.57;;;1.00;;
12861;SDS011;6499;66.348;14.134;2023-04-01T04:06:11;2.40;;;0.77;;
12861;SDS011;6499;66.348;14.134;2023-04-01T04:08:38;6.80;;;1.07;;
12861;SDS011;6499;66.348;14.134;2023-04-01T04:11:05;3.30;;;0.90;;
12861;SDS011;6499;66.348;14.134;2023-04-01T04:13:32;4.70;;;1.20;;
12861;SDS011;6499;66.348;14.134;2023-04-01T04:15:58;2.73;;;1.13;;
12861;SDS011;6499;66.348;14.134;2023-04-01T04:18:25;3.03;;;1.00;;
12861;SDS011;6499;66.348;14.134;2023-04-01T04:20:51;4.20;;;1.73;;
12861;SDS011;6499;66.348;14.134;2023-04-01T04:23:19;4.53;;;2.03;;
12861;SDS011;6499;66.348;14.134;2023-04-01T04:25:52;3.57;;;1.27;;
12861;SDS011;6499;66.348;14.134;2023-04-01T04:28:19;3.70;;;1.90;;
12861;SDS011;6499;66.348;14.134;2023-04-01T04:30:45;4.93;;;1.70;;
12861;SDS011;6499;66.348;14.134;2023-04-01T04:33:12;3.97;;;1.33;;
12861;SDS011;6499;66.348;14.134;2023-04-01T04:35:38;3.70;;;1.23;;
12861;SDS011;6499;66.348;14.134;2023-04-01T04:38:05;5.30;;;1.37;;
12861;SDS011;6499;66.348;14.134;2023-04-01T04:40:33;2.67;;;1.13;;
12861;SDS011;6499;66.348;14.134;2023-04-01T04:43:01;4.87;;;1.00;;
12861;SDS011;6499;66.348;14.134;2023-04-01T04:45:28;3.07;;;1.10;;
12861;SDS011;6499;66.348;14.134;2023-04-01T04:47:55;3.33;;;1.10;;
12861;SDS011;6499;66.348;14.134;2023-04-01T04:50:21;3.13;;;1.17;;
12861;SDS011;6499;66.348;14.134;2023-04-01T04:52:48;2.37;;;1.37;;
12861;SDS011;6499;66.348;14.134;2023-04-01T04:55:15;2.90;;;1.00;;
12861;SDS011;6499;66.348;14.134;2023-04-01T04:57:43;6.23;;;1.57;;
12861;SDS011;6499;66.348;14.134;2023-04-01T05:00:10;4.43;;;1.70;;
12861;SDS011;6499;66.348;14.134;2023-04-01T05:02:37;5.60;;;2.20;;
12861;SDS011;6499;66.348;14.134;2023-04-01T05:26:24;4.50;;;1.53;;
12861;SDS011;6499;66.348;14.134;2023-04-01T05:28:51;4.07;;;1.60;;
12861;SDS011;6499;66.348;14.134;2023-04-01T05:31:17;3.27;;;1.90;;
12861;SDS011;6499;66.348;14.134;2023-04-01T05:33:43;5.80;;;2.50;;
12861;SDS011;6499;66.348;14.134;2023-04-01T05:36:11;11.87;;;5.47;;
12861;SDS011;6499;66.348;14.134;2023-04-01T05:38:38;10.70;;;4.93;;
12861;SDS011;6499;66.348;14.134;2023-04-01T05:41:05;5.50;;;3.20;;
12861;SDS011;6499;66.348;14.134;2023-04-01T05:43:33;4.17;;;2.17;;
12861;SDS011;6499;66.348;14.134;2023-04-01T05:46:01;4.83;;;2.37;;
12861;SDS011;6499;66.348;14.134;2023-04-01T05:48:28;4.27;;;1.47;;
12861;SDS011;6499;66.348;14.134;2023-04-01T05:50:54;3.73;;;1.60;;
12861;SDS011;6499;66.348;14.134;2023-04-01T05:53:20;5.20;;;1.50;;
12861;SDS011;6499;66.348;14.134;2023-04-01T05:55:47;3.40;;;1.20;;
12861;SDS011;6499;66.348;14.134;2023-04-01T05:58:13;5.50;;;2.13;;
12861;SDS011;6499;66.348;14.134;2023-04-01T06:00:41;6.40;;;2.07;;
12861;SDS011;6499;66.348;14.134;2023-04-01T06:03:08;4.10;;;2.07;;
12861;SDS011;6499;66.348;14.134;2023-04-01T06:05:37;6.33;;;1.80;;
12861;SDS011;6499;66.348;14.134;2023-04-01T06:08:08;5.87;;;1.90;;
12861;SDS011;6499;66.348;14.134;2023-04-01T06:10:37;7.57;;;2.07;;
12861;SDS011;6499;66.348;14.134;2023-04-01T06:13:06;6.00;;;1.77;;
12861;SDS011;6499;66.348;14.134;2023-04-01T06:15:35;2.40;;;1.47;;
12861;SDS011;6499;66.348;14.134;2023-04-01T06:18:15;6.07;;;2.00;;
12861;SDS011;6499;66.348;14.134;2023-04-01T06:20:48;3.53;;;1.50;;
12861;SDS011;6499;66.348;14.134;2023-04-01T06:26:03;5.20;;;1.73;;
12861;SDS011;6499;66.348;14.134;2023-04-01T06:28:40;4.03;;;1.50;;
12861;SDS011;6499;66.348;14.134;2023-04-01T06:31:12;5.47;;;1.77;;
12861;SDS011;6499;66.348;14.134;2023-04-01T06:33:52;5.37;;;1.70;;
12861;SDS011;6499;66.348;14.134;2023-04-01T06:36:26;5.40;;;1.50;;
12861;SDS011;6499;66.348;14.134;2023-04-01T06:38:58;5.13;;;1.50;;
12861;SDS011;6499;66.348;14.134;2023-04-01T06:41:32;4.53;;;1.40;;
12861;SDS011;6499;66.348;14.134;2023-04-01T06:44:07;4.03;;;1.57;;
12861;SDS011;6499;66.348;14.134;2023-04-01T06:46:36;5.47;;;3.03;;
12861;SDS011;6499;66.348;14.134;2023-04-01T06:49:16;15.23;;;9.73;;
12861;SDS011;6499;66.348;14.134;2023-04-01T06:51:47;6.03;;;4.57;;
12861;SDS011;6499;66.348;14.134;2023-04-01T06:54:18;7.67;;;3.83;;
12861;SDS011;6499;66.348;14.134;2023-04-01T06:56:46;7.90;;;3.50;;
12861;SDS011;6499;66.348;14.134;2023-04-01T06:59:16;6.53;;;3.20;;
12861;SDS011;6499;66.348;14.134;2023-04-01T07:01:45;8.40;;;3.20;;
12861;SDS011;6499;66.348;14.134;2023-04-01T07:04:14;7.50;;;3.33;;
12861;SDS011;6499;66.348;14.134;2023-04-01T07:06:43;5.37;;;2.47;;
12861;SDS011;6499;66.348;14.134;2023-04-01T07:09:14;5.83;;;2.20;;
12861;SDS011;6499;66.348;14.134;2023-04-01T07:11:42;9.13;;;2.47;;
12861;SDS011;6499;66.348;14.134;2023-04-01T07:14:10;4.33;;;2.00;;
12861;SDS011;6499;66.348;14.134;2023-04-01T07:16:41;6.33;;;1.67;;
12861;SDS011;6499;66.348;14.134;2023-04-01T07:19:10;2.90;;;1.60;;
12861;SDS011;6499;66.348;14.134;2023-04-01T07:21:41;3.90;;;1.40;;
12861;SDS011;6499;66.348;14.134;2023-04-01T07:24:10;2.70;;;1.30;;
12861;SDS011;6499;66.348;14.134;2023-04-01T07:26:38;9.77;;;2.23;;
12861;SDS011;6499;66.348;14.134;2023-04-01T07:29:05;4.90;;;1.70;;
12861;SDS011;6499;66.348;14.134;2023-04-01T07:31:39;4.37;;;1.90;;
12861;SDS011;6499;66.348;14.134;2023-04-01T07:34:11;3.40;;;1.63;;
12861;SDS011;6499;66.348;14.134;2023-04-01T07:36:39;5.37;;;2.37;;
12861;SDS011;6499;66.348;14.134;2023-04-01T07:39:12;3.83;;;1.90;;
12861;SDS011;6499;66.348;14.134;2023-04-01T07:41:45;4.50;;;1.63;;
12861;SDS011;6499;66.348;14.134;2023-04-01T07:44:14;4.63;;;1.60;;
12861;SDS011;6499;66.348;14.134;2023-04-01T07:46:49;2.63;;;1.33;;
12861;SDS011;6499;66.348;14.134;2023-04-01T07:49:19;2.40;;;1.20;;
12861;SDS011;6499;66.348;14.134;2023-04-01T07:51:49;4.07;;;1.50;;
12861;SDS011;6499;66.348;14.134;2023-04-01T07:54:22;4.40;;;1.47;;
12861;SDS011;6499;66.348;14.134;2023-04-01T07:56:51;3.73;;;1.10;;
12861;SDS011;6499;66.348;14.134;2023-04-01T07:59:22;14.13;;;1.77;;
12861;SDS011;6499;66.348;14.134;2023-04-01T08:01:52;6.70;;;1.50;;
12861;SDS011;6499;66.348;14.134;2023-04-01T08:04:25;4.37;;;1.80;;
12861;SDS011;6499;66.348;14.134;2023-04-01T08:06:56;4.47;;;1.10;;
12861;SDS011;6499;66.348;14.134;2023-04-01T08:09:28;2.97;;;1.27;;
12861;SDS011;6499;66.348;14.134;2023-04-01T08:12:02;4.27;;;1.10;;
12861;SDS011;6499;66.348;14.134;2023-04-01T08:14:32;3.40;;;1.20;;
12861;SDS011;6499;66.348;14.134;2023-04-01T08:17:01;3.73;;;1.23;;
12861;SDS011;6499;66.348;14.134;2023-04-01T08:19:30;5.10;;;1.40;;
12861;SDS011;6499;66.348;14.134;2023-04-01T08:21:58;4.27;;;1.10;;
12861;SDS011;6499;66.348;14.134;2023-04-01T08:24:33;5.50;;;1.43;;
12861;SDS011;6499;66.348;14.134;2023-04-01T08:27:01;3.33;;;0.93;;
12861;SDS011;6499;66.348;14.134;2023-04-01T08:29:31;3.53;;;1.10;;
12861;SDS011;6499;66.348;14.134;2023-04-01T08:32:03;1.53;;;0.90;;
12861;SDS011;6499;66.348;14.134;2023-04-01T08:34:33;4.80;;;1.30;;
12861;SDS011;6499;66.348;14.134;2023-04-01T08:37:01;4.87;;;1.43;;
12861;SDS011;6499;66.348;14.134;2023-04-01T08:39:31;4.50;;;1.47;;
12861;SDS011;6499;66.348;14.134;2023-04-01T08:42:04;6.70;;;1.40;;
12861;SDS011;6499;66.348;14.134;2023-04-01T08:44:45;5.50;;;1.50;;
12861;SDS011;6499;66.348;14.134;2023-04-01T08:50:02;5.57;;;1.40;;
12861;SDS011;6499;66.348;14.134;2023-04-01T08:52:34;3.33;;;1.40;;
12861;SDS011;6499;66.348;14.134;2023-04-01T08:55:04;5.57;;;1.30;;
12861;SDS011;6499;66.348;14.134;2023-04-01T08:57:40;2.67;;;1.17;;
12861;SDS011;6499;66.348;14.134;2023-04-01T09:00:15;3.70;;;1.30;;
12861;SDS011;6499;66.348;14.134;2023-04-01T09:05:36;6.23;;;1.20;;
12861;SDS011;6499;66.348;14.134;2023-04-01T09:08:08;6.77;;;1.47;;
12861;SDS011;6499;66.348;14.134;2023-04-01T09:10:49;3.17;;;1.30;;
12861;SDS011;6499;66.348;14.134;2023-04-01T09:13:24;6.50;;;1.73;;
12861;SDS011;6499;66.348;14.134;2023-04-01T09:16:04;3.17;;;1.27;;
12861;SDS011;6499;66.348;14.134;2023-04-01T09:18:43;3.57;;;1.20;;
12861;SDS011;6499;66.348;14.134;2023-04-01T09:24:03;5.20;;;1.40;;
12861;SDS011;6499;66.348;14.134;2023-04-01T09:26:44;5.20;;;1.37;;
12861;SDS011;6499;66.348;14.134;2023-04-01T09:29:20;4.23;;;1.13;;
12861;SDS011;6499;66.348;14.134;2023-04-01T09:32:03;7.83;;;1.40;;
12861;SDS011;6499;66.348;14.134;2023-04-01T09:34:43;3.87;;;1.43;;
12861;SDS011;6499;66.348;14.134;2023-04-01T09:37:19;3.97;;;1.37;;
12861;SDS011;6499;66.348;14.134;2023-04-01T09:39:51;6.73;;;1.87;;
12861;SDS011;6499;66.348;14.134;2023-04-01T09:42:32;3.90;;;1.50;;
12861;SDS011;6499;66.348;14.134;2023-04-01T09:45:04;5.63;;;1.53;;
12861;SDS011;6499;66.348;14.134;2023-04-01T09:47:41;7.87;;;2.23;;
12861;SDS011;6499;66.348;14.134;2023-04-01T09:50:17;6.00;;;1.93;;
12861;SDS011;6499;66.348;14.134;2023-04-01T09:52:47;4.77;;;1.50;;
12861;SDS011;6499;66.348;14.134;2023-04-01T09:55:19;4.03;;;1.40;;
12861;SDS011;6499;66.348;14.134;2023-04-01T10:00:56;2.77;;;1.40;;
12861;SDS011;6499;66.348;14.134;2023-04-01T10:03:36;5.23;;;1.40;;
12861;SDS011;6499;66.348;14.134;2023-04-01T10:17:21;3.83;;;1.43;;
12861;SDS011;6499;66.348;14.134;2023-04-01T10:19:56;2.87;;;1.27;;
12861;SDS011;6499;66.348;14.134;2023-04-01T10:22:42;3.30;;;1.57;;
12861;SDS011;6499;66.348;14.134;2023-04-01T10:25:30;6.13;;;1.90;;
12861;SDS011;6499;66.348;14.134;2023-04-01T10:28:07;4.80;;;1.47;;
12861;SDS011;6499;66.348;14.134;2023-04-01T10:33:34;5.57;;;1.60;;
12861;SDS011;6499;66.348;14.134;2023-04-01T10:44:40;5.67;;;1.93;;
12861;SDS011;6499;66.348;14.134;2023-04-01T10:47:16;2.97;;;1.70;;
12861;SDS011;6499;66.348;14.134;2023-04-01T10:49:55;2.33;;;1.40;;
12861;SDS011;6499;66.348;14.134;2023-04-01T10:52:33;4.67;;;1.53;;
12861;SDS011;6499;66.348;14.134;2023-04-01T10:55:09;5.10;;;1.97;;
12861;SDS011;6499;66.348;14.134;2023-04-01T11:03:39;5.37;;;1.90;;
12861;SDS011;6499;66.348;14.134;2023-04-01T11:11:56;3.83;;;1.70;;
12861;SDS011;6499;66.348;14.134;2023-04-01T11:22:57;3.90;;;1.60;;
12861;SDS011;6499;66.348;14.134;2023-04-01T11:25:46;3.80;;;1.30;;
12861;SDS011;6499;66.348;14.134;2023-04-01T11:28:38;5.10;;;1.83;;
12861;SDS011;6499;66.348;14.134;2023-04-01T11:33:55;3.80;;;1.47;;
12861;SDS011;6499;66.348;14.134;2023-04-01T11:36:29;6.43;;;1.80;;
12861;SDS011;6499;66.348;14.134;2023-04-01T11:39:01;4.23;;;1.90;;
12861;SDS011;6499;66.348;14.134;2023-04-01T11:41:33;4.23;;;1.60;;
12861;SDS011;6499;66.348;14.134;2023-04-01T11:44:10;4.40;;;1.53;;
12861;SDS011;6499;66.348;14.134;2023-04-01T11:46:42;6.70;;;1.70;;
12861;SDS011;6499;66.348;14.134;2023-04-01T11:49:18;4.20;;;1.50;;
12861;SDS011;6499;66.348;14.134;2023-04-01T11:51:52;4.03;;;1.23;;
12861;SDS011;6499;66.348;14.134;2023-04-01T11:54:28;5.63;;;1.37;;
12861;SDS011;6499;66.348;14.134;2023-04-01T11:57:03;3.40;;;1.40;;
12861;SDS011;6499;66.348;14.134;2023-04-01T11:59:41;2.20;;;1.50;;
12861;SDS011;6499;66.348;14.134;2023-04-01T12:02:10;4.20;;;1.50;;
12861;SDS011;6499;66.348;14.134;2023-04-01T12:07:24;4.63;;;1.63;;
12861;SDS011;6499;66.348;14.134;2023-04-01T12:09:55;2.67;;;1.43;;
12861;SDS011;6499;66.348;14.134;2023-04-01T12:12:27;2.97;;;1.47;;
12861;SDS011;6499;66.348;14.134;2023-04-01T12:15:00;6.10;;;1.67;;
12861;SDS011;6499;66.348;14.134;2023-04-01T12:17:30;4.07;;;1.37;;
12861;SDS011;6499;66.348;14.134;2023-04-01T12:20:01;3.40;;;1.30;;
12861;SDS011;6499;66.348;14.134;2023-04-01T12:22:39;2.80;;;1.60;;
12861;SDS011;6499;66.348;14.134;2023-04-01T12:28:02;6.47;;;1.10;;
12861;SDS011;6499;66.348;14.134;2023-04-01T12:30:35;1.83;;;1.07;;
12861;SDS011;6499;66.348;14.134;2023-04-01T12:35:48;2.50;;;0.97;;
12861;SDS011;6499;66.348;14.134;2023-04-01T12:38:20;4.40;;;1.00;;
12861;SDS011;6499;66.348;14.134;2023-04-01T12:40:51;6.13;;;2.33;;
12861;SDS011;6499;66.348;14.134;2023-04-01T12:43:33;4.40;;;1.60;;
12861;SDS011;6499;66.348;14.134;2023-04-01T12:46:09;3.80;;;1.40;;
12861;SDS011;6499;66.348;14.134;2023-04-01T12:48:45;2.60;;;0.80;;
12861;SDS011;6499;66.348;14.134;2023-04-01T12:51:21;3.70;;;1.17;;
12861;SDS011;6499;66.348;14.134;2023-04-01T12:54:08;3.53;;;1.33;;
12861;SDS011;6499;66.348;14.134;2023-04-01T12:56:39;2.70;;;1.10;;
12861;SDS011;6499;66.348;14.134;2023-04-01T13:01:56;3.60;;;0.93;;
12861;SDS011;6499;66.348;14.134;2023-04-01T13:04:47;5.33;;;1.30;;
12861;SDS011;6499;66.348;14.134;2023-04-01T13:07:30;2.37;;;1.00;;
12861;SDS011;6499;66.348;14.134;2023-04-01T13:10:02;4.13;;;1.30;;
12861;SDS011;6499;66.348;14.134;2023-04-01T13:12:42;3.73;;;1.00;;
12861;SDS011;6499;66.348;14.134;2023-04-01T13:15:20;3.43;;;0.90;;
12861;SDS011;6499;66.348;14.134;2023-04-01T13:17:52;4.10;;;0.90;;
12861;SDS011;6499;66.348;14.134;2023-04-01T13:20:22;2.73;;;1.10;;
12861;SDS011;6499;66.348;14.134;2023-04-01T13:22:52;3.87;;;0.87;;
12861;SDS011;6499;66.348;14.134;2023-04-01T13:25:24;4.23;;;1.07;;
12861;SDS011;6499;66.348;14.134;2023-04-01T13:27:54;2.17;;;0.90;;
12861;SDS011;6499;66.348;14.134;2023-04-01T13:30:24;3.23;;;1.10;;
12861;SDS011;6499;66.348;14.134;2023-04-01T13:32:56;5.93;;;0.80;;
12861;SDS011;6499;66.348;14.134;2023-04-01T13:35:31;3.57;;;0.90;;
12861;SDS011;6499;66.348;14.134;2023-04-01T13:38:17;3.60;;;1.30;;
12861;SDS011;6499;66.348;14.134;2023-04-01T13:40:48;1.80;;;0.83;;
12861;SDS011;6499;66.348;14.134;2023-04-01T13:43:19;2.13;;;1.13;;
12861;SDS011;6499;66.348;14.134;2023-04-01T13:48:33;2.40;;;1.07;;
12861;SDS011;6499;66.348;14.134;2023-04-01T13:51:21;3.73;;;1.70;;
12861;SDS011;6499;66.348;14.134;2023-04-01T13:53:56;3.70;;;1.10;;
12861;SDS011;6499;66.348;14.134;2023-04-01T13:56:29;4.93;;;1.50;;
12861;SDS011;6499;66.348;14.134;2023-04-01T13:59:02;2.50;;;1.03;;
12861;SDS011;6499;66.348;14.134;2023-04-01T14:01:31;4.40;;;1.27;;
12861;SDS011;6499;66.348;14.134;2023-04-01T14:04:19;3.87;;;1.23;;
12861;SDS011;6499;66.348;14.134;2023-04-01T14:06:50;2.53;;;1.00;;
12861;SDS011;6499;66.348;14.134;2023-04-01T14:09:25;2.70;;;0.80;;
12861;SDS011;6499;66.348;14.134;2023-04-01T14:11:56;1.23;;;0.90;;
12861;SDS011;6499;66.348;14.134;2023-04-01T14:14:32;2.60;;;1.10;;
12861;SDS011;6499;66.348;14.134;2023-04-01T14:19:47;3.30;;;1.13;;
12861;SDS011;6499;66.348;14.134;2023-04-01T14:22:19;1.73;;;0.63;;
12861;SDS011;6499;66.348;14.134;2023-04-01T14:25:04;3.17;;;1.00;;
12861;SDS011;6499;66.348;14.134;2023-04-01T14:27:41;1.10;;;0.80;;
12861;SDS011;6499;66.348;14.134;2023-04-01T14:30:24;2.93;;;0.80;;
12861;SDS011;6499;66.348;14.134;2023-04-01T14:32:56;2.20;;;0.83;;
12861;SDS011;6499;66.348;14.134;2023-04-01T14:35:35;2.03;;;0.60;;
12861;SDS011;6499;66.348;14.134;2023-04-01T14:38:15;1.13;;;0.80;;
12861;SDS011;6499;66.348;14.134;2023-04-01T14:40:52;1.73;;;0.70;;
12861;SDS011;6499;66.348;14.134;2023-04-01T14:43:28;2.30;;;0.73;;
12861;SDS011;6499;66.348;14.134;2023-04-01T14:48:49;2.63;;;0.87;;
12861;SDS011;6499;66.348;14.134;2023-04-01T14:51:19;2.80;;;0.80;;
12861;SDS011;6499;66.348;14.134;2023-04-01T14:53:52;1.60;;;0.67;;
12861;SDS011;6499;66.348;14.134;2023-04-01T14:59:04;2.40;;;0.83;;
12861;SDS011;6499;66.348;14.134;2023-04-01T15:01:35;1.37;;;0.70;;
12861;SDS011;6499;66.348;14.134;2023-04-01T15:04:10;0.80;;;0.50;;
12861;SDS011;6499;66.348;14.134;2023-04-01T15:09:31;1.77;;;0.60;;
12861;SDS011;6499;66.348;14.134;2023-04-01T15:12:04;1.33;;;0.60;;
12861;SDS011;6499;66.348;14.134;2023-04-01T15:20:23;1.50;;;0.70;;
12861;SDS011;6499;66.348;14.134;2023-04-01T15:22:57;2.97;;;0.90;;
12861;SDS011;6499;66.348;14.134;2023-04-01T15:25:30;1.90;;;0.70;;
12861;SDS011;6499;66.348;14.134;2023-04-01T15:28:00;1.17;;;0.70;;
12861;SDS011;6499;66.348;14.134;2023-04-01T15:30:32;1.03;;;0.60;;
12861;SDS011;6499;66.348;14.134;2023-04-01T15:33:06;1.27;;;0.70;;
12861;SDS011;6499;66.348;14.134;2023-04-01T15:35:38;2.00;;;0.83;;
12861;SDS011;6499;66.348;14.134;2023-04-01T15:38:06;2.60;;;0.80;;
12861;SDS011;6499;66.348;14.134;2023-04-01T15:40:41;7.97;;;6.77;;
12861;SDS011;6499;66.348;14.134;2023-04-01T15:43:15;3.23;;;1.80;;
12861;SDS011;6499;66.348;14.134;2023-04-01T15:45:48;2.60;;;0.93;;
12861;SDS011;6499;66.348;14.134;2023-04-01T15:48:20;1.20;;;0.80;;
12861;SDS011;6499;66.348;14.134;2023-04-01T15:51:01;2.90;;;0.70;;
12861;SDS011;6499;66.348;14.134;2023-04-01T15:53:35;1.30;;;0.90;;
12861;SDS011;6499;66.348;14.134;2023-04-01T15:56:13;2.17;;;0.80;;
12861;SDS011;6499;66.348;14.134;2023-04-01T15:58:45;1.07;;;0.77;;
12861;SDS011;6499;66.348;14.134;2023-04-01T16:01:16;2.30;;;0.90;;
12861;SDS011;6499;66.348;14.134;2023-04-01T16:03:45;1.70;;;0.60;;
12861;SDS011;6499;66.348;14.134;2023-04-01T16:06:19;1.43;;;0.60;;
12861;SDS011;6499;66.348;14.134;2023-04-01T16:08:55;1.57;;;0.73;;
12861;SDS011;6499;66.348;14.134;2023-04-01T16:11:28;1.53;;;0.70;;
12861;SDS011;6499;66.348;14.134;2023-04-01T16:14:01;2.23;;;0.57;;
12861;SDS011;6499;66.348;14.134;2023-04-01T16:16:34;2.53;;;0.70;;
12861;SDS011;6499;66.348;14.134;2023-04-01T16:19:04;3.37;;;0.60;;
12861;SDS011;6499;66.348;14.134;2023-04-01T16:21:35;2.70;;;1.30;;
12861;SDS011;6499;66.348;14.134;2023-04-01T16:24:04;2.50;;;1.30;;
12861;SDS011;6499;66.348;14.134;2023-04-01T16:26:37;1.83;;;1.43;;
12861;SDS011;6499;66.348;14.134;2023-04-01T16:29:08;2.07;;;1.27;;
12861;SDS011;6499;66.348;14.134;2023-04-01T16:31:37;3.27;;;2.17;;
12861;SDS011;6499;66.348;14.134;2023-04-01T16:34:10;1.93;;;1.00;;
12861;SDS011;6499;66.348;14.134;2023-04-01T16:36:41;1.63;;;0.60;;
12861;SDS011;6499;66.348;14.134;2023-04-01T16:39:19;0.93;;;0.60;;
12861;SDS011;6499;66.348;14.134;2023-04-01T16:41:49;1.00;;;0.60;;
12861;SDS011;6499;66.348;14.134;2023-04-01T16:44:17;1.40;;;0.60;;
12861;SDS011;6499;66.348;14.134;2023-04-01T16:46:45;1.57;;;0.40;;
12861;SDS011;6499;66.348;14.134;2023-04-01T16:49:17;1.80;;;0.50;;
12861;SDS011;6499;66.348;14.134;2023-04-01T16:51:52;1.53;;;0.50;;
12861;SDS011;6499;66.348;14.134;2023-04-01T16:54:25;0.80;;;0.50;;
12861;SDS011;6499;66.348;14.134;2023-04-01T16:56:55;1.83;;;0.60;;
12861;SDS011;6499;66.348;14.134;2023-04-01T16:59:23;1.33;;;0.80;;
12861;SDS011;6499;66.348;14.134;2023-04-01T17:01:52;1.60;;;0.70;;
12861;SDS011;6499;66.348;14.134;2023-04-01T17:04:22;2.43;;;0.83;;
12861;SDS011;6499;66.348;14.134;2023-04-01T17:06:52;1.57;;;0.70;;
12861;SDS011;6499;66.348;14.134;2023-04-01T17:09:22;1.53;;;0.50;;
12861;SDS011;6499;66.348;14.134;2023-04-01T17:11:49;2.70;;;0.80;;
12861;SDS011;6499;66.348;14.134;2023-04-01T17:14:23;1.03;;;0.53;;
12861;SDS011;6499;66.348;14.134;2023-04-01T17:16:56;1.07;;;0.57;;
12861;SDS011;6499;66.348;14.134;2023-04-01T17:19:37;1.00;;;0.70;;